createdAt,value
2022-08-30T00:01:29.742Z,100082.00
2022-08-30T00:03:58.507Z,100077.66
2022-08-30T00:06:28.641Z,100076.75
2022-08-30T00:08:56.515Z,100074.09
2022-08-30T00:11:26.844Z,100071.44
2022-08-30T00:13:56.013Z,100078.53
2022-08-30T00:16:25.354Z,100074.91
2022-08-30T00:18:53.110Z,100076.75
2022-08-30T00:21:21.191Z,100080.28
2022-08-30T00:23:48.989Z,100078.50
2022-08-30T00:26:16.493Z,100073.25
2022-08-30T00:28:44.040Z,100076.75
2022-08-30T00:31:15.135Z,100076.75
2022-08-30T00:33:43.146Z,100075.84
2022-08-30T00:36:10.695Z,100079.31
2022-08-30T00:38:38.401Z,100072.25
2022-08-30T00:41:05.919Z,100082.03
2022-08-30T00:43:36.699Z,100076.75
2022-08-30T00:46:08.379Z,100082.03
2022-08-30T00:48:40.836Z,100079.41
2022-08-30T00:51:11.475Z,100075.88
2022-08-30T00:53:41.956Z,100082.88
2022-08-30T00:56:10.174Z,100083.81
2022-08-30T00:58:39.522Z,100078.53
2022-08-30T01:01:07.870Z,100086.41
2022-08-30T01:03:37.355Z,100071.47
2022-08-30T01:06:05.542Z,100079.38
2022-08-30T01:08:33.343Z,100073.25
2022-08-30T01:11:03.185Z,100073.19
2022-08-30T01:13:31.106Z,100081.06
2022-08-30T01:16:00.142Z,100074.87
2022-08-30T01:18:28.614Z,100076.62
2022-08-30T01:21:08.401Z,100066.84
2022-08-30T01:23:38.514Z,100070.31
2022-08-30T01:26:06.452Z,100072.97
2022-08-30T01:28:34.762Z,100068.50
2022-08-30T01:31:02.864Z,100073.94
2022-08-30T01:33:31.167Z,100069.56
2022-08-30T01:36:04.939Z,100064.91
2022-08-30T01:38:40.278Z,100065.94
2022-08-30T01:41:11.066Z,100066.06
2022-08-30T01:43:39.059Z,100067.81
2022-08-30T01:46:06.609Z,100064.37
2022-08-30T01:48:34.480Z,100061.75
2022-08-30T01:51:03.325Z,100070.59
2022-08-30T01:53:31.071Z,100062.66
2022-08-30T01:55:58.637Z,100057.37
2022-08-30T01:58:26.345Z,100060.91
2022-08-30T02:00:53.773Z,100059.16
2022-08-30T02:03:21.586Z,100058.25
2022-08-30T02:05:49.303Z,100058.22
2022-08-30T02:08:16.717Z,100061.78
2022-08-30T02:10:44.690Z,100051.19
2022-08-30T02:13:12.451Z,100059.00
2022-08-30T02:15:41.885Z,100059.00
2022-08-30T02:18:10.828Z,100052.03
2022-08-30T02:20:39.873Z,100054.72
2022-08-30T02:23:07.385Z,100045.03
2022-08-30T02:25:34.869Z,100050.31
2022-08-30T02:28:02.658Z,100049.47
2022-08-30T02:30:30.197Z,100057.34
2022-08-30T02:32:57.878Z,100051.19
2022-08-30T02:35:25.968Z,100054.69
2022-08-30T02:37:53.613Z,100059.09
2022-08-30T02:40:22.311Z,100048.47
2022-08-30T02:42:50.176Z,100052.78
2022-08-30T02:45:17.726Z,100058.06
2022-08-30T02:47:47.183Z,100064.00
2022-08-30T02:50:15.906Z,100069.22
2022-08-30T02:52:45.271Z,100065.56
2022-08-30T02:55:16.799Z,100061.25
2022-08-30T02:57:44.667Z,100062.03
2022-08-30T03:00:14.751Z,100062.75
2022-08-30T03:02:42.680Z,100059.34
2022-08-30T03:05:13.021Z,100059.28
2022-08-30T03:07:41.612Z,100051.66
2022-08-30T03:10:10.002Z,100057.44
2022-08-30T03:12:37.727Z,100058.13
2022-08-30T03:15:06.556Z,100052.19
2022-08-30T03:17:35.041Z,100060.22
2022-08-30T03:20:03.723Z,100066.50
2022-08-30T03:22:31.317Z,100065.91
2022-08-30T03:25:00.218Z,100065.75
2022-08-30T03:27:28.590Z,100076.12
2022-08-30T03:29:56.251Z,100073.38
2022-08-30T03:32:24.659Z,100075.94
2022-08-30T03:34:52.056Z,100080.13
2022-08-30T03:37:23.313Z,100075.84
2022-08-30T03:39:55.606Z,100083.50
2022-08-30T03:42:23.140Z,100084.13
2022-08-30T03:44:52.404Z,100086.81
2022-08-30T03:47:20.960Z,100085.97
2022-08-30T03:49:48.479Z,100092.91
2022-08-30T03:52:15.957Z,100094.47
2022-08-30T03:54:44.128Z,100090.38
2022-08-30T03:57:13.406Z,100098.91
2022-08-30T03:59:48.049Z,100100.53
2022-08-30T04:02:15.564Z,100096.53
2022-08-30T04:04:43.334Z,100099.38
2022-08-30T04:07:10.721Z,100099.06
2022-08-30T04:09:38.285Z,100101.78
2022-08-30T04:12:06.063Z,100099.78
2022-08-30T04:14:33.607Z,100103.44
2022-08-30T04:17:01.000Z,100108.88
2022-08-30T04:19:28.799Z,100113.41
2022-08-30T04:21:57.355Z,100113.44
2022-08-30T04:24:25.518Z,100113.53
2022-08-30T04:26:53.207Z,100128.72
2022-08-30T04:29:20.624Z,100127.66
2022-08-30T04:31:48.124Z,100139.22
2022-08-30T04:34:15.848Z,100133.62
2022-08-30T04:36:48.277Z,100147.72
2022-08-30T04:39:17.772Z,100158.34
2022-08-30T04:41:45.490Z,100150.25
2022-08-30T04:44:16.780Z,100158.44
2022-08-30T04:46:47.784Z,100164.16
2022-08-30T04:49:15.371Z,100166.84
2022-08-30T04:51:42.920Z,100165.38
2022-08-30T04:54:10.628Z,100157.50
2022-08-30T04:56:38.164Z,100168.06
2022-08-30T04:59:05.826Z,100170.06
2022-08-30T05:01:36.735Z,100169.63
2022-08-30T05:04:14.790Z,100164.75
2022-08-30T05:06:43.326Z,100161.28
2022-08-30T05:09:11.305Z,100173.59
2022-08-30T05:11:38.970Z,100175.41
2022-08-30T05:14:06.835Z,100173.59
2022-08-30T05:16:34.419Z,100174.50
2022-08-30T05:19:02.097Z,100177.09
2022-08-30T05:21:29.922Z,100182.41
2022-08-30T05:24:00.168Z,100178.88
2022-08-30T05:26:30.551Z,100172.72
2022-08-30T05:28:58.637Z,100174.50
2022-08-30T05:31:35.029Z,100176.13
2022-08-30T05:34:03.018Z,100172.66
2022-08-30T05:36:32.473Z,100176.16
2022-08-30T05:39:01.342Z,100177.09
2022-08-30T05:41:30.039Z,100176.19
2022-08-30T05:43:59.481Z,100168.28
2022-08-30T05:49:07.398Z,100177.09
2022-08-30T05:51:35.844Z,100178.03
2022-08-30T05:54:09.166Z,100178.84
2022-08-30T05:56:38.949Z,100182.41
2022-08-30T05:59:07.738Z,100182.41
2022-08-30T06:01:44.482Z,100185.91
2022-08-30T06:04:13.855Z,100180.66
2022-08-30T06:06:43.162Z,100182.38
2022-08-30T06:09:12.337Z,100185.91
2022-08-30T06:11:41.002Z,100188.56
2022-08-30T06:14:09.021Z,100193.00
2022-08-30T06:16:38.866Z,100192.03
2022-08-30T06:19:08.602Z,100184.75
2022-08-30T06:21:37.752Z,100196.31
2022-08-30T06:24:06.899Z,100193.69
2022-08-30T06:26:38.986Z,100185.78
2022-08-30T06:29:06.543Z,100192.84
2022-08-30T06:31:34.458Z,100194.50
2022-08-30T06:34:02.628Z,100192.69
2022-08-30T06:36:30.109Z,100190.81
2022-08-30T06:38:58.677Z,100193.31
2022-08-30T06:41:28.958Z,100193.88
2022-08-30T06:43:58.363Z,100193.94
2022-08-30T06:46:32.641Z,100187.03
2022-08-30T06:49:00.641Z,100194.84
2022-08-30T06:51:31.583Z,100186.28
2022-08-30T06:53:59.450Z,100184.69
2022-08-30T06:56:27.605Z,100190.75
2022-08-30T06:58:55.815Z,100199.19
2022-08-30T07:01:27.631Z,100202.53
2022-08-30T07:03:55.878Z,100200.53
2022-08-30T07:06:25.289Z,100207.63
2022-08-30T07:08:56.027Z,100203.41
2022-08-30T07:11:35.685Z,100208.34
2022-08-30T07:14:03.936Z,100199.09
2022-08-30T07:16:32.270Z,100205.06
2022-08-30T07:19:00.494Z,100206.50
2022-08-30T07:21:31.889Z,100202.63
2022-08-30T07:24:00.545Z,100205.72
2022-08-30T07:26:32.377Z,100202.28
2022-08-30T07:29:00.669Z,100212.28
2022-08-30T07:31:28.805Z,100208.94
2022-08-30T07:33:56.611Z,100208.53
2022-08-30T07:36:24.826Z,100211.53
2022-08-30T07:38:52.498Z,100213.66
2022-08-30T07:41:23.631Z,100218.00
2022-08-30T07:43:51.705Z,100211.94
2022-08-30T07:46:20.012Z,100216.91
2022-08-30T07:48:48.183Z,100214.50
2022-08-30T07:51:19.761Z,100208.19
2022-08-30T07:53:50.040Z,100220.37
2022-08-30T07:56:17.932Z,100214.03
2022-08-30T07:58:45.380Z,100215.91
2022-08-30T08:01:13.674Z,100213.97
2022-08-30T08:03:43.056Z,100213.63
2022-08-30T08:06:12.442Z,100207.69
2022-08-30T08:08:40.494Z,100209.44
2022-08-30T08:11:16.193Z,100217.00
2022-08-30T08:13:53.741Z,100209.09
2022-08-30T08:16:25.715Z,100219.59
2022-08-30T08:18:54.532Z,100211.81
2022-08-30T08:21:24.615Z,100213.25
2022-08-30T08:23:52.345Z,100213.91
2022-08-30T08:26:20.822Z,100210.59
2022-08-30T08:28:49.076Z,100219.03
2022-08-30T08:31:27.228Z,100212.78
2022-08-30T08:34:04.319Z,100209.22
2022-08-30T08:36:33.197Z,100215.22
2022-08-30T08:39:01.643Z,100209.28
2022-08-30T08:41:51.827Z,100212.78
2022-08-30T08:44:34.410Z,100207.53
2022-08-30T08:47:30.867Z,100203.75
2022-08-30T08:50:04.166Z,100206.19
2022-08-30T08:53:20.449Z,100216.06
2022-08-30T08:55:53.737Z,100213.72
2022-08-30T08:58:29.258Z,100210.50
2022-08-30T09:00:59.106Z,100207.78
2022-08-30T09:03:29.028Z,100203.94
2022-08-30T09:05:58.254Z,100202.84
2022-08-30T09:08:25.732Z,100202.50
2022-08-30T09:11:00.296Z,100201.97
2022-08-30T09:13:28.454Z,100199.75
2022-08-30T09:15:59.575Z,100198.09
2022-08-30T09:18:54.612Z,100198.00
2022-08-30T09:21:25.133Z,100189.87
2022-08-30T09:24:01.288Z,100185.03
2022-08-30T09:26:36.728Z,100185.87
2022-08-30T09:29:06.055Z,100190.34
2022-08-30T09:32:22.596Z,100186.47
2022-08-30T09:34:43.907Z,100179.91
2022-08-30T09:37:31.941Z,100172.81
2022-08-30T09:40:00.565Z,100172.91
2022-08-30T09:42:30.069Z,100176.00
2022-08-30T09:45:10.508Z,100170.62
2022-08-30T09:47:41.597Z,100172.28
2022-08-30T09:50:19.936Z,100163.63
2022-08-30T09:53:01.203Z,100169.47
2022-08-30T09:55:41.677Z,100166.81
2022-08-30T09:58:29.919Z,100158.59
2022-08-30T10:01:17.144Z,100163.34
2022-08-30T10:04:02.686Z,100162.81
2022-08-30T10:06:58.085Z,100154.84
2022-08-30T10:09:36.505Z,100148.00
2022-08-30T10:12:42.341Z,100159.75
2022-08-30T10:15:33.911Z,100149.03
2022-08-30T10:18:17.667Z,100144.53
2022-08-30T10:21:26.384Z,100144.75
2022-08-30T10:24:13.085Z,100142.84
2022-08-30T10:26:50.841Z,100138.41
2022-08-30T10:29:30.814Z,100129.28
2022-08-30T10:32:11.512Z,100134.31
2022-08-30T10:34:41.581Z,100132.47
2022-08-30T10:37:27.589Z,100135.22
2022-08-30T10:40:00.699Z,100123.09
2022-08-30T10:42:31.530Z,100119.31
2022-08-30T10:45:06.073Z,100117.97
2022-08-30T10:47:55.750Z,100119.38
2022-08-30T10:50:33.841Z,100113.88
2022-08-30T10:53:09.949Z,100117.25
2022-08-30T10:55:49.455Z,100112.34
2022-08-30T10:58:19.241Z,100108.91
2022-08-30T11:01:12.544Z,100103.53
2022-08-30T11:03:53.106Z,100105.03
2022-08-30T11:06:39.790Z,100101.63
2022-08-30T11:09:16.900Z,100101.94
2022-08-30T11:12:05.629Z,100101.59
2022-08-30T11:14:33.983Z,100104.06
2022-08-30T11:17:02.166Z,100099.78
2022-08-30T11:19:37.724Z,100099.03
2022-08-30T11:22:18.681Z,100099.25
2022-08-30T11:25:10.233Z,100086.44
2022-08-30T11:27:51.478Z,100083.94
2022-08-30T11:30:26.470Z,100077.16
2022-08-30T11:33:13.000Z,100079.91
2022-08-30T11:35:49.868Z,100070.38
2022-08-30T11:38:40.214Z,100070.75
2022-08-30T11:41:12.053Z,100072.03
2022-08-30T11:43:42.832Z,100079.09
2022-08-30T11:46:36.724Z,100071.00
2022-08-30T11:49:16.521Z,100064.28
2022-08-30T11:52:02.926Z,100058.88
2022-08-30T11:54:54.039Z,100057.44
2022-08-30T11:57:32.029Z,100055.97
2022-08-30T12:00:34.926Z,100047.16
2022-08-30T12:03:06.307Z,100045.03
2022-08-30T12:05:45.979Z,100046.53
2022-08-30T12:08:28.195Z,100044.69
2022-08-30T12:11:02.311Z,100043.28
2022-08-30T12:13:39.189Z,100039.84
2022-08-30T12:16:11.682Z,100034.44
2022-08-30T12:18:39.296Z,100023.00
2022-08-30T12:21:20.082Z,100031.03
2022-08-30T12:23:52.419Z,100033.97
2022-08-30T12:26:25.135Z,100022.59
2022-08-30T12:29:25.460Z,100017.97
2022-08-30T12:32:05.598Z,100018.72
2022-08-30T12:34:50.167Z,100009.22
2022-08-30T12:37:25.142Z,100016.03
2022-08-30T12:40:13.023Z,100007.25
2022-08-30T12:42:55.978Z,99999.75
2022-08-30T12:45:34.281Z,99994.94
2022-08-30T12:48:08.333Z,99989.69
2022-08-30T12:50:43.714Z,99986.97
2022-08-30T12:53:14.175Z,99983.91
2022-08-30T12:56:01.495Z,99976.47
2022-08-30T12:58:49.580Z,99974.06
2022-08-30T13:01:32.419Z,99975.53
2022-08-30T13:04:13.521Z,99965.13
2022-08-30T13:06:54.091Z,99965.56
2022-08-30T13:09:34.890Z,99960.97
2022-08-30T13:12:04.933Z,99965.47
2022-08-30T13:14:44.678Z,99966.50
2022-08-30T13:17:18.718Z,99965.28
2022-08-30T13:19:58.777Z,99961.78
2022-08-30T13:22:32.421Z,99958.72
2022-08-30T13:25:00.406Z,99948.31
2022-08-30T13:27:29.517Z,99938.53
2022-08-30T13:29:58.127Z,99946.53
2022-08-30T13:32:25.524Z,99939.34
2022-08-30T13:34:53.297Z,99944.56
2022-08-30T13:40:13.059Z,99941.69
2022-08-30T13:42:42.846Z,99936.88
2022-08-30T13:48:00.481Z,99928.03
2022-08-30T13:50:28.757Z,99936.59
2022-08-30T13:52:58.209Z,99922.34
2022-08-30T13:55:26.479Z,99930.25
2022-08-30T13:57:56.437Z,99923.09
2022-08-30T14:00:25.495Z,99920.72
2022-08-30T14:02:57.330Z,99919.09
2022-08-30T14:05:48.878Z,99916.13
2022-08-30T14:11:16.111Z,99909.94
2022-08-30T14:16:36.571Z,99904.59
2022-08-30T14:19:04.837Z,99896.06
2022-08-30T14:21:33.284Z,99901.97
2022-08-30T14:24:01.053Z,99885.81
2022-08-30T14:26:33.489Z,99884.50
2022-08-30T14:29:03.944Z,99888.63
2022-08-30T14:31:32.949Z,99891.22
2022-08-30T14:34:05.462Z,99896.47
2022-08-30T14:36:35.286Z,99894.66
2022-08-30T14:39:06.261Z,99892.41
2022-08-30T14:41:43.648Z,99886.84
2022-08-30T14:44:13.128Z,99892.25
2022-08-30T14:46:41.775Z,99883.53
2022-08-30T14:49:11.321Z,99892.38
2022-08-30T14:51:39.399Z,99891.66
2022-08-30T14:54:07.697Z,99886.84
2022-08-30T14:56:36.874Z,99892.72
2022-08-30T14:59:04.277Z,99888.28
2022-08-30T15:01:33.303Z,99890.12
2022-08-30T15:04:07.322Z,99886.28
2022-08-30T15:06:37.298Z,99888.69
2022-08-30T15:09:06.593Z,99882.50
2022-08-30T15:11:34.772Z,99889.31
2022-08-30T15:14:02.610Z,99890.44
2022-08-30T15:16:33.095Z,99883.22
2022-08-30T15:19:01.601Z,99881.44
2022-08-30T15:21:32.492Z,99883.34
2022-08-30T15:24:01.599Z,99886.94
2022-08-30T15:26:29.554Z,99883.62
2022-08-30T15:28:57.433Z,99882.44
2022-08-30T15:31:28.529Z,99872.97
2022-08-30T15:33:57.903Z,99877.47
2022-08-30T15:36:27.472Z,99871.16
2022-08-30T15:38:56.604Z,99881.75
2022-08-30T15:41:24.415Z,99877.38
2022-08-30T15:43:55.310Z,99874.38
2022-08-30T15:46:30.226Z,99876.59
2022-08-30T15:49:16.126Z,99876.47
2022-08-30T15:51:46.247Z,99878.69
2022-08-30T15:54:16.494Z,99881.53
2022-08-30T15:56:44.872Z,99879.53
2022-08-30T15:59:15.285Z,99883.78
2022-08-30T16:01:43.918Z,99879.78
2022-08-30T16:04:12.241Z,99881.53
2022-08-30T16:06:39.912Z,99880.59
2022-08-30T16:09:10.636Z,99872.50
2022-08-30T16:11:38.712Z,99867.56
2022-08-30T16:14:06.805Z,99873.44
2022-08-30T16:16:37.606Z,99873.63
2022-08-30T16:19:05.836Z,99873.03
2022-08-30T16:21:36.911Z,99871.87
2022-08-30T16:24:23.462Z,99870.75
2022-08-30T16:26:51.753Z,99866.00
2022-08-30T16:29:19.329Z,99871.84
2022-08-30T16:31:47.654Z,99862.13
2022-08-30T16:34:17.541Z,99867.31
2022-08-30T16:36:45.876Z,99861.53
2022-08-30T16:39:14.016Z,99868.19
2022-08-30T16:41:44.799Z,99868.06
2022-08-30T16:44:13.712Z,99865.66
2022-08-30T16:46:43.827Z,99865.84
2022-08-30T16:49:20.322Z,99863.94
2022-08-30T16:51:50.723Z,99870.16
2022-08-30T16:54:18.184Z,99862.75
2022-08-30T16:56:45.900Z,99869.75
2022-08-30T16:59:14.617Z,99867.06
2022-08-30T17:01:43.469Z,99869.53
2022-08-30T17:04:12.946Z,99868.62
2022-08-30T17:06:43.849Z,99873.88
2022-08-30T17:09:11.299Z,99871.09
2022-08-30T17:11:40.306Z,99874.75
2022-08-30T17:14:08.741Z,99881.03
2022-08-30T17:16:38.712Z,99882.75
2022-08-30T17:19:09.164Z,99885.88
2022-08-30T17:21:37.037Z,99886.16
2022-08-30T17:24:06.821Z,99883.38
2022-08-30T17:26:37.042Z,99893.38
2022-08-30T17:29:05.971Z,99886.97
2022-08-30T17:31:37.493Z,99890.94
2022-08-30T17:34:05.902Z,99891.25
2022-08-30T17:36:36.440Z,99896.97
2022-08-30T17:39:11.166Z,99902.28
2022-08-30T17:41:45.238Z,99900.53
2022-08-30T17:44:25.617Z,99905.84
2022-08-30T17:46:53.994Z,99910.19
2022-08-30T17:49:22.555Z,99913.00
2022-08-30T17:51:56.112Z,99918.06
2022-08-30T17:54:26.616Z,99926.63
2022-08-30T17:56:54.810Z,99932.91
2022-08-30T17:59:25.126Z,99942.84
2022-08-30T18:01:54.835Z,99938.38
2022-08-30T18:04:25.009Z,99942.63
2022-08-30T18:06:53.327Z,99939.13
2022-08-30T18:09:21.447Z,99941.00
2022-08-30T18:11:49.795Z,99952.00
2022-08-30T18:14:17.435Z,99943.56
2022-08-30T18:16:53.812Z,99948.22
2022-08-30T18:19:23.839Z,99952.44
2022-08-30T18:21:52.179Z,99954.66
2022-08-30T18:24:20.177Z,99945.38
2022-08-30T18:26:48.035Z,99954.31
2022-08-30T18:29:26.167Z,99952.72
2022-08-30T18:31:59.449Z,99964.09
2022-08-30T18:34:27.048Z,99964.13
2022-08-30T18:36:54.550Z,99970.72
2022-08-30T18:39:23.045Z,99972.97
2022-08-30T18:41:51.110Z,99973.13
2022-08-30T18:44:33.470Z,99978.59
2022-08-30T18:47:03.727Z,99984.59
2022-08-30T18:49:32.861Z,99976.47
2022-08-30T18:52:02.092Z,99986.47
2022-08-30T18:54:29.940Z,99975.63
2022-08-30T18:56:58.278Z,99974.28
2022-08-30T18:59:35.693Z,99977.16
2022-08-30T19:02:10.489Z,99973.03
2022-08-30T19:04:39.232Z,99983.88
2022-08-30T19:07:12.693Z,99979.91
2022-08-30T19:09:41.432Z,99978.28
2022-08-30T19:14:59.681Z,99976.19
2022-08-30T19:17:28.818Z,99974.91
2022-08-30T19:19:56.493Z,99979.47
2022-08-30T19:22:28.653Z,99976.19
2022-08-30T19:25:01.309Z,99983.34
2022-08-30T19:27:38.482Z,99977.31
2022-08-30T19:30:11.171Z,99978.37
2022-08-30T19:32:38.654Z,99981.25
2022-08-30T19:35:07.822Z,99979.47
2022-08-30T19:37:36.718Z,99976.16
2022-08-30T19:40:06.917Z,99981.44
2022-08-30T19:42:38.438Z,99981.59
2022-08-30T19:45:13.201Z,99973.66
2022-08-30T19:47:40.883Z,99983.84
2022-08-30T19:50:08.851Z,99970.97
2022-08-30T19:52:37.627Z,99978.94
2022-08-30T19:55:07.236Z,99981.31
2022-08-30T19:57:35.666Z,99984.84
2022-08-30T20:00:06.887Z,99983.25
2022-08-30T20:02:39.887Z,99980.38
2022-08-30T20:05:09.328Z,99984.66
2022-08-30T20:07:37.661Z,99990.25
2022-08-30T20:10:08.296Z,99986.94
2022-08-30T20:12:36.521Z,99989.53
2022-08-30T20:15:10.320Z,99986.06
2022-08-30T20:18:02.835Z,99986.94
2022-08-30T20:20:27.102Z,99986.97
2022-08-30T20:22:56.905Z,99984.31
2022-08-30T20:24:32.127Z,99978.53
2022-08-30T20:25:24.914Z,99986.06
2022-08-30T20:27:52.680Z,99968.47
2022-08-30T20:30:20.829Z,99970.25
2022-08-30T20:32:48.417Z,99967.59
2022-08-30T20:35:17.615Z,99968.13
2022-08-30T20:37:45.876Z,99972.44
2022-08-30T20:40:15.956Z,99961.97
2022-08-30T20:42:45.713Z,99961.19
2022-08-30T20:45:16.186Z,99955.22
2022-08-30T20:47:44.155Z,99960.41
2022-08-30T20:50:14.370Z,99961.28
2022-08-30T20:52:42.417Z,99964.81
2022-08-30T20:55:11.492Z,99964.91
2022-08-30T20:57:39.748Z,99964.03
2022-08-30T21:00:11.100Z,99971.06
2022-08-30T21:02:42.700Z,99958.78
2022-08-30T21:05:15.792Z,99962.31
2022-08-30T21:07:46.201Z,99964.13
2022-08-30T21:10:14.219Z,99967.66
2022-08-30T21:12:43.025Z,99972.94
2022-08-30T21:15:33.898Z,99972.06
2022-08-30T21:18:00.624Z,99962.37
2022-08-30T21:20:28.873Z,99968.53
2022-08-30T21:22:56.433Z,99969.38
2022-08-30T21:25:24.190Z,99965.00
2022-08-30T21:27:53.126Z,99971.16
2022-08-30T21:30:20.739Z,99972.06
2022-08-30T21:32:48.513Z,99978.19
2022-08-30T21:35:36.392Z,99972.84
2022-08-30T21:38:06.630Z,99980.63
2022-08-30T21:40:34.120Z,99983.09
2022-08-30T21:43:05.664Z,99979.81
2022-08-30T21:45:41.282Z,99985.87
2022-08-30T21:48:09.379Z,99987.00
2022-08-30T21:50:41.827Z,99981.66
2022-08-30T21:53:09.688Z,99986.94
2022-08-30T21:55:37.518Z,99996.59
2022-08-30T21:58:05.151Z,99995.66
2022-08-30T22:00:33.686Z,99990.47
2022-08-30T22:03:01.473Z,99983.41
2022-08-30T22:05:29.024Z,99982.38
2022-08-30T22:07:56.623Z,99985.84
2022-08-30T22:10:24.619Z,99989.50
2022-08-30T22:12:52.113Z,99990.34
2022-08-30T22:15:19.567Z,99984.94
2022-08-30T22:17:47.345Z,99987.59
2022-08-30T22:20:18.531Z,99984.84
2022-08-30T22:22:46.199Z,99979.56
2022-08-30T22:25:14.021Z,99980.31
2022-08-30T22:27:41.423Z,99979.53
2022-08-30T22:30:09.335Z,99980.53
2022-08-30T22:32:38.269Z,99977.13
2022-08-30T22:35:06.616Z,99971.91
2022-08-30T22:37:34.860Z,99972.63
2022-08-30T22:40:02.965Z,99971.75
2022-08-30T22:42:30.663Z,99970.69
2022-08-30T22:44:58.215Z,99971.34
2022-08-30T22:47:25.949Z,99963.41
2022-08-30T22:49:53.370Z,99961.00
2022-08-30T22:52:22.132Z,99958.31
2022-08-30T22:54:53.310Z,99955.69
2022-08-30T22:57:20.790Z,99951.38
2022-08-30T22:59:48.724Z,99950.47
2022-08-30T23:02:16.676Z,99949.53
2022-08-30T23:04:44.176Z,99956.56
2022-08-30T23:07:11.674Z,99947.53
2022-08-30T23:09:39.406Z,99946.69
2022-08-30T23:12:06.919Z,99946.72
2022-08-30T23:14:34.390Z,99943.28
2022-08-30T23:17:02.205Z,99949.47
2022-08-30T23:19:29.647Z,99952.53
2022-08-30T23:21:57.499Z,99949.09
2022-08-30T23:24:48.801Z,99961.38
2022-08-30T23:27:35.541Z,99949.13
2022-08-30T23:30:24.800Z,99954.41
2022-08-30T23:33:10.850Z,99951.72
2022-08-30T23:35:57.226Z,99948.28
2022-08-30T23:38:43.902Z,99948.28
2022-08-30T23:41:33.943Z,99948.25
2022-08-30T23:44:20.349Z,99946.56
2022-08-30T23:47:07.267Z,99946.53
2022-08-30T23:49:53.386Z,99952.63
2022-08-30T23:52:39.680Z,99946.47
2022-08-30T23:55:26.278Z,99944.62
2022-08-30T23:58:12.794Z,99947.13
